Dayton, Tennessee
Current Conditions -  °F | °C
As of 4:15 PM on Tuesday 27 Jan 2015 (Local Time) from KRZR Reporting Station
Overcast Overcast  
Wind Chill: 32°   Ceiling: 2900
Heat Index: 37°   Visibility: 10mi
Dew Point: 28°   Wind: 7mph
Humidity: 70%   Direction: 290°WNW
Pressure: 30.04"   Gusts: NA
Location:  35.49°N, 85.01°W
Report Text: KRZR 272115Z AUTO 29006KT 10SM OVC029 03/M02 A3004 RMK
Loading
Personal Weather Stations






























Interactive Weather Map New forecast layout! Learn more

10-Day Weather Forecast

Advertisements
Track Severe Weather on mobile